sensor_id;sensor_type;location;lat;lon;timestamp;P1;durP1;ratioP1;P2;durP2;ratioP2
26989;SDS011;14537;47.788;11.858;2022-11-15T00:00:17;4.55;;;1.98;;
26989;SDS011;14537;47.788;11.858;2022-11-15T00:02:43;6.95;;;2.08;;
26989;SDS011;14537;47.788;11.858;2022-11-15T00:05:09;6.65;;;2.00;;
26989;SDS011;14537;47.788;11.858;2022-11-15T00:07:34;5.78;;;2.30;;
26989;SDS011;14537;47.788;11.858;2022-11-15T00:10:00;4.35;;;2.17;;
26989;SDS011;14537;47.788;11.858;2022-11-15T00:12:27;3.75;;;2.10;;
26989;SDS011;14537;47.788;11.858;2022-11-15T00:14:53;2.58;;;1.80;;
26989;SDS011;14537;47.788;11.858;2022-11-15T00:17:19;3.28;;;2.00;;
26989;SDS011;14537;47.788;11.858;2022-11-15T00:19:44;5.18;;;2.35;;
26989;SDS011;14537;47.788;11.858;2022-11-15T00:22:10;5.18;;;2.13;;
26989;SDS011;14537;47.788;11.858;2022-11-15T00:24:36;7.90;;;2.10;;
26989;SDS011;14537;47.788;11.858;2022-11-15T00:27:01;3.33;;;1.85;;
26989;SDS011;14537;47.788;11.858;2022-11-15T00:29:27;4.88;;;2.33;;
26989;SDS011;14537;47.788;11.858;2022-11-15T00:31:53;4.60;;;1.83;;
26989;SDS011;14537;47.788;11.858;2022-11-15T00:34:18;4.45;;;1.77;;
26989;SDS011;14537;47.788;11.858;2022-11-15T00:36:44;1.98;;;1.33;;
26989;SDS011;14537;47.788;11.858;2022-11-15T00:39:10;3.88;;;2.03;;
26989;SDS011;14537;47.788;11.858;2022-11-15T00:41:35;3.30;;;1.90;;
26989;SDS011;14537;47.788;11.858;2022-11-15T00:44:01;6.10;;;2.47;;
26989;SDS011;14537;47.788;11.858;2022-11-15T00:46:27;9.30;;;2.45;;
26989;SDS011;14537;47.788;11.858;2022-11-15T00:48:52;6.82;;;2.65;;
26989;SDS011;14537;47.788;11.858;2022-11-15T00:51:18;6.20;;;2.55;;
26989;SDS011;14537;47.788;11.858;2022-11-15T00:53:44;4.88;;;2.25;;
26989;SDS011;14537;47.788;11.858;2022-11-15T00:56:09;6.70;;;2.58;;
26989;SDS011;14537;47.788;11.858;2022-11-15T00:58:35;3.05;;;1.52;;
26989;SDS011;14537;47.788;11.858;2022-11-15T01:01:08;3.92;;;1.90;;
26989;SDS011;14537;47.788;11.858;2022-11-15T01:03:35;3.85;;;2.17;;
26989;SDS011;14537;47.788;11.858;2022-11-15T01:06:02;6.13;;;1.80;;
26989;SDS011;14537;47.788;11.858;2022-11-15T01:08:28;4.28;;;2.05;;
26989;SDS011;14537;47.788;11.858;2022-11-15T01:10:54;3.53;;;1.77;;
26989;SDS011;14537;47.788;11.858;2022-11-15T01:13:25;3.13;;;1.85;;
26989;SDS011;14537;47.788;11.858;2022-11-15T01:15:50;2.60;;;1.42;;
26989;SDS011;14537;47.788;11.858;2022-11-15T01:18:16;5.90;;;1.52;;
26989;SDS011;14537;47.788;11.858;2022-11-15T01:20:41;8.73;;;2.22;;
26989;SDS011;14537;47.788;11.858;2022-11-15T01:23:07;5.35;;;1.80;;
26989;SDS011;14537;47.788;11.858;2022-11-15T01:25:33;3.33;;;1.77;;
26989;SDS011;14537;47.788;11.858;2022-11-15T01:27:58;4.70;;;1.90;;
26989;SDS011;14537;47.788;11.858;2022-11-15T01:30:24;3.10;;;1.50;;
26989;SDS011;14537;47.788;11.858;2022-11-15T01:32:50;4.03;;;1.48;;
26989;SDS011;14537;47.788;11.858;2022-11-15T01:35:15;2.97;;;1.70;;
26989;SDS011;14537;47.788;11.858;2022-11-15T01:37:41;1.73;;;1.30;;
26989;SDS011;14537;47.788;11.858;2022-11-15T01:40:07;2.70;;;1.30;;
26989;SDS011;14537;47.788;11.858;2022-11-15T01:42:33;2.97;;;1.55;;
26989;SDS011;14537;47.788;11.858;2022-11-15T01:44:58;3.33;;;1.55;;
26989;SDS011;14537;47.788;11.858;2022-11-15T01:47:25;4.13;;;2.08;;
26989;SDS011;14537;47.788;11.858;2022-11-15T01:52:39;2.22;;;1.67;;
26989;SDS011;14537;47.788;11.858;2022-11-15T01:55:18;3.13;;;1.63;;
26989;SDS011;14537;47.788;11.858;2022-11-15T01:57:52;3.25;;;1.60;;
26989;SDS011;14537;47.788;11.858;2022-11-15T02:00:20;3.00;;;1.50;;
26989;SDS011;14537;47.788;11.858;2022-11-15T02:02:46;1.55;;;1.00;;
26989;SDS011;14537;47.788;11.858;2022-11-15T02:05:11;2.58;;;1.40;;
26989;SDS011;14537;47.788;11.858;2022-11-15T02:07:37;2.60;;;1.17;;
26989;SDS011;14537;47.788;11.858;2022-11-15T02:10:07;2.42;;;1.55;;
26989;SDS011;14537;47.788;11.858;2022-11-15T02:12:38;2.33;;;1.38;;
26989;SDS011;14537;47.788;11.858;2022-11-15T02:15:05;2.15;;;1.33;;
26989;SDS011;14537;47.788;11.858;2022-11-15T02:34:28;1.50;;;1.10;;
26989;SDS011;14537;47.788;11.858;2022-11-15T02:39:51;2.63;;;1.45;;
26989;SDS011;14537;47.788;11.858;2022-11-15T02:42:32;3.28;;;1.30;;
26989;SDS011;14537;47.788;11.858;2022-11-15T02:45:23;2.30;;;0.90;;
26989;SDS011;14537;47.788;11.858;2022-11-15T02:47:53;1.67;;;1.08;;
26989;SDS011;14537;47.788;11.858;2022-11-15T02:50:23;2.10;;;0.90;;
26989;SDS011;14537;47.788;11.858;2022-11-15T02:52:51;1.90;;;1.35;;
26989;SDS011;14537;47.788;11.858;2022-11-15T03:03:29;1.95;;;1.40;;
26989;SDS011;14537;47.788;11.858;2022-11-15T03:11:59;3.58;;;1.77;;
26989;SDS011;14537;47.788;11.858;2022-11-15T03:14:36;3.70;;;1.90;;
26989;SDS011;14537;47.788;11.858;2022-11-15T03:17:27;5.55;;;1.83;;
26989;SDS011;14537;47.788;11.858;2022-11-15T03:20:03;2.22;;;1.30;;
26989;SDS011;14537;47.788;11.858;2022-11-15T03:22:33;3.90;;;1.58;;
26989;SDS011;14537;47.788;11.858;2022-11-15T03:25:05;6.03;;;1.77;;
26989;SDS011;14537;47.788;11.858;2022-11-15T03:27:41;2.30;;;1.38;;
26989;SDS011;14537;47.788;11.858;2022-11-15T03:30:13;2.65;;;1.40;;
26989;SDS011;14537;47.788;11.858;2022-11-15T03:32:44;3.05;;;1.30;;
26989;SDS011;14537;47.788;11.858;2022-11-15T03:35:16;1.95;;;1.25;;
26989;SDS011;14537;47.788;11.858;2022-11-15T03:40:38;2.00;;;1.23;;
26989;SDS011;14537;47.788;11.858;2022-11-15T03:46:06;2.63;;;1.30;;
26989;SDS011;14537;47.788;11.858;2022-11-15T03:48:39;1.35;;;0.98;;
26989;SDS011;14537;47.788;11.858;2022-11-15T03:51:14;1.90;;;1.20;;
26989;SDS011;14537;47.788;11.858;2022-11-15T03:53:40;2.42;;;1.20;;
26989;SDS011;14537;47.788;11.858;2022-11-15T03:56:06;2.53;;;1.23;;
26989;SDS011;14537;47.788;11.858;2022-11-15T03:58:32;1.83;;;1.23;;
26989;SDS011;14537;47.788;11.858;2022-11-15T04:00:57;1.17;;;0.80;;
26989;SDS011;14537;47.788;11.858;2022-11-15T04:03:24;1.98;;;1.33;;
26989;SDS011;14537;47.788;11.858;2022-11-15T04:05:50;2.20;;;1.15;;
26989;SDS011;14537;47.788;11.858;2022-11-15T04:08:15;1.38;;;1.05;;
26989;SDS011;14537;47.788;11.858;2022-11-15T04:10:41;2.50;;;1.20;;
26989;SDS011;14537;47.788;11.858;2022-11-15T04:13:07;2.20;;;0.90;;
26989;SDS011;14537;47.788;11.858;2022-11-15T04:15:33;1.55;;;0.95;;
26989;SDS011;14537;47.788;11.858;2022-11-15T04:17:59;1.48;;;1.10;;
26989;SDS011;14537;47.788;11.858;2022-11-15T04:20:25;1.95;;;1.10;;
26989;SDS011;14537;47.788;11.858;2022-11-15T04:23:14;1.90;;;1.20;;
26989;SDS011;14537;47.788;11.858;2022-11-15T04:26:04;2.13;;;1.30;;
26989;SDS011;14537;47.788;11.858;2022-11-15T04:28:32;1.85;;;1.08;;
26989;SDS011;14537;47.788;11.858;2022-11-15T04:30:58;1.92;;;1.10;;
26989;SDS011;14537;47.788;11.858;2022-11-15T04:33:24;4.43;;;1.42;;
26989;SDS011;14537;47.788;11.858;2022-11-15T04:35:50;1.00;;;0.85;;
26989;SDS011;14537;47.788;11.858;2022-11-15T04:38:36;1.73;;;1.00;;
26989;SDS011;14537;47.788;11.858;2022-11-15T04:41:02;1.10;;;0.98;;
26989;SDS011;14537;47.788;11.858;2022-11-15T04:43:28;1.77;;;0.98;;
26989;SDS011;14537;47.788;11.858;2022-11-15T04:45:54;1.05;;;0.95;;
26989;SDS011;14537;47.788;11.858;2022-11-15T04:48:20;1.63;;;1.30;;
26989;SDS011;14537;47.788;11.858;2022-11-15T04:50:49;2.00;;;1.10;;
26989;SDS011;14537;47.788;11.858;2022-11-15T04:53:15;1.10;;;0.88;;
26989;SDS011;14537;47.788;11.858;2022-11-15T04:55:43;1.63;;;1.25;;
26989;SDS011;14537;47.788;11.858;2022-11-15T04:58:10;2.05;;;1.15;;
26989;SDS011;14537;47.788;11.858;2022-11-15T05:00:35;2.70;;;0.90;;
26989;SDS011;14537;47.788;11.858;2022-11-15T05:03:01;1.52;;;0.90;;
26989;SDS011;14537;47.788;11.858;2022-11-15T05:05:45;2.40;;;1.23;;
26989;SDS011;14537;47.788;11.858;2022-11-15T05:08:11;1.30;;;1.10;;
26989;SDS011;14537;47.788;11.858;2022-11-15T05:10:36;2.13;;;1.30;;
26989;SDS011;14537;47.788;11.858;2022-11-15T05:13:02;2.05;;;1.25;;
26989;SDS011;14537;47.788;11.858;2022-11-15T05:15:28;4.07;;;1.90;;
26989;SDS011;14537;47.788;11.858;2022-11-15T05:17:57;6.60;;;2.33;;
26989;SDS011;14537;47.788;11.858;2022-11-15T05:20:24;6.65;;;1.95;;
26989;SDS011;14537;47.788;11.858;2022-11-15T05:22:50;5.88;;;2.35;;
26989;SDS011;14537;47.788;11.858;2022-11-15T05:25:15;5.10;;;1.67;;
26989;SDS011;14537;47.788;11.858;2022-11-15T05:27:41;7.03;;;2.15;;
26989;SDS011;14537;47.788;11.858;2022-11-15T05:30:07;4.00;;;1.92;;
26989;SDS011;14537;47.788;11.858;2022-11-15T05:32:33;11.50;;;4.05;;
26989;SDS011;14537;47.788;11.858;2022-11-15T05:34:58;5.90;;;2.88;;
26989;SDS011;14537;47.788;11.858;2022-11-15T05:37:24;10.13;;;3.60;;
26989;SDS011;14537;47.788;11.858;2022-11-15T05:39:50;16.15;;;5.47;;
26989;SDS011;14537;47.788;11.858;2022-11-15T05:42:15;10.25;;;4.05;;
26989;SDS011;14537;47.788;11.858;2022-11-15T05:44:43;9.88;;;3.47;;
26989;SDS011;14537;47.788;11.858;2022-11-15T05:47:13;8.20;;;3.58;;
26989;SDS011;14537;47.788;11.858;2022-11-15T05:49:43;9.30;;;4.50;;
26989;SDS011;14537;47.788;11.858;2022-11-15T05:52:11;6.28;;;2.72;;
26989;SDS011;14537;47.788;11.858;2022-11-15T05:54:39;5.53;;;2.60;;
26989;SDS011;14537;47.788;11.858;2022-11-15T05:57:06;3.75;;;1.55;;
26989;SDS011;14537;47.788;11.858;2022-11-15T05:59:32;6.45;;;1.77;;
26989;SDS011;14537;47.788;11.858;2022-11-15T06:01:59;6.60;;;2.25;;
26989;SDS011;14537;47.788;11.858;2022-11-15T06:04:25;2.88;;;1.42;;
26989;SDS011;14537;47.788;11.858;2022-11-15T06:06:51;2.90;;;1.25;;
26989;SDS011;14537;47.788;11.858;2022-11-15T06:09:16;6.03;;;1.67;;
26989;SDS011;14537;47.788;11.858;2022-11-15T06:11:42;5.22;;;1.85;;
26989;SDS011;14537;47.788;11.858;2022-11-15T06:14:07;3.13;;;1.50;;
26989;SDS011;14537;47.788;11.858;2022-11-15T06:16:33;2.92;;;1.38;;
26989;SDS011;14537;47.788;11.858;2022-11-15T06:18:59;7.95;;;1.80;;
26989;SDS011;14537;47.788;11.858;2022-11-15T06:21:24;4.53;;;1.70;;
26989;SDS011;14537;47.788;11.858;2022-11-15T06:23:52;5.90;;;1.70;;
26989;SDS011;14537;47.788;11.858;2022-11-15T06:26:18;3.85;;;1.20;;
26989;SDS011;14537;47.788;11.858;2022-11-15T06:28:44;2.55;;;1.55;;
26989;SDS011;14537;47.788;11.858;2022-11-15T06:31:10;6.53;;;1.65;;
26989;SDS011;14537;47.788;11.858;2022-11-15T06:33:37;4.63;;;2.00;;
26989;SDS011;14537;47.788;11.858;2022-11-15T06:36:04;3.40;;;1.73;;
26989;SDS011;14537;47.788;11.858;2022-11-15T06:38:32;3.80;;;1.33;;
26989;SDS011;14537;47.788;11.858;2022-11-15T06:41:02;6.03;;;1.88;;
26989;SDS011;14537;47.788;11.858;2022-11-15T06:43:32;2.63;;;1.45;;
26989;SDS011;14537;47.788;11.858;2022-11-15T06:45:59;2.22;;;1.30;;
26989;SDS011;14537;47.788;11.858;2022-11-15T06:48:26;2.70;;;1.45;;
26989;SDS011;14537;47.788;11.858;2022-11-15T06:50:52;5.68;;;1.73;;
26989;SDS011;14537;47.788;11.858;2022-11-15T06:53:19;2.85;;;1.40;;
26989;SDS011;14537;47.788;11.858;2022-11-15T06:55:44;3.22;;;2.03;;
26989;SDS011;14537;47.788;11.858;2022-11-15T06:58:10;5.93;;;1.60;;
26989;SDS011;14537;47.788;11.858;2022-11-15T07:00:36;2.92;;;1.67;;
26989;SDS011;14537;47.788;11.858;2022-11-15T07:03:02;5.00;;;1.85;;
26989;SDS011;14537;47.788;11.858;2022-11-15T07:05:28;5.88;;;2.28;;
26989;SDS011;14537;47.788;11.858;2022-11-15T07:07:54;6.07;;;2.40;;
26989;SDS011;14537;47.788;11.858;2022-11-15T07:10:21;7.82;;;2.97;;
26989;SDS011;14537;47.788;11.858;2022-11-15T07:12:49;3.60;;;2.00;;
26989;SDS011;14537;47.788;11.858;2022-11-15T07:15:16;3.67;;;1.60;;
26989;SDS011;14537;47.788;11.858;2022-11-15T07:17:43;4.63;;;2.10;;
26989;SDS011;14537;47.788;11.858;2022-11-15T07:20:08;7.10;;;3.03;;
26989;SDS011;14537;47.788;11.858;2022-11-15T07:22:35;7.40;;;3.30;;
26989;SDS011;14537;47.788;11.858;2022-11-15T07:25:00;10.52;;;4.78;;
26989;SDS011;14537;47.788;11.858;2022-11-15T07:27:26;12.25;;;4.40;;
26989;SDS011;14537;47.788;11.858;2022-11-15T07:29:51;15.32;;;5.47;;
26989;SDS011;14537;47.788;11.858;2022-11-15T07:32:17;14.02;;;5.40;;
26989;SDS011;14537;47.788;11.858;2022-11-15T07:34:43;10.75;;;4.45;;
26989;SDS011;14537;47.788;11.858;2022-11-15T07:37:10;10.80;;;3.70;;
26989;SDS011;14537;47.788;11.858;2022-11-15T07:39:36;11.57;;;4.65;;
26989;SDS011;14537;47.788;11.858;2022-11-15T07:42:02;9.98;;;3.97;;
26989;SDS011;14537;47.788;11.858;2022-11-15T07:44:46;6.88;;;3.13;;
26989;SDS011;14537;47.788;11.858;2022-11-15T07:47:12;8.00;;;2.90;;
26989;SDS011;14537;47.788;11.858;2022-11-15T07:49:37;5.60;;;2.63;;
26989;SDS011;14537;47.788;11.858;2022-11-15T07:52:03;11.55;;;4.03;;
26989;SDS011;14537;47.788;11.858;2022-11-15T07:54:29;12.60;;;4.28;;
26989;SDS011;14537;47.788;11.858;2022-11-15T07:56:54;14.00;;;5.07;;
26989;SDS011;14537;47.788;11.858;2022-11-15T07:59:20;20.50;;;6.00;;
26989;SDS011;14537;47.788;11.858;2022-11-15T08:01:46;18.35;;;5.70;;
26989;SDS011;14537;47.788;11.858;2022-11-15T08:04:11;16.08;;;6.35;;
26989;SDS011;14537;47.788;11.858;2022-11-15T08:06:37;10.95;;;3.85;;
26989;SDS011;14537;47.788;11.858;2022-11-15T08:09:03;10.35;;;3.63;;
26989;SDS011;14537;47.788;11.858;2022-11-15T08:11:29;7.30;;;3.38;;
26989;SDS011;14537;47.788;11.858;2022-11-15T08:13:54;8.25;;;3.00;;
26989;SDS011;14537;47.788;11.858;2022-11-15T08:16:20;7.03;;;2.85;;
26989;SDS011;14537;47.788;11.858;2022-11-15T08:18:46;6.15;;;2.00;;
26989;SDS011;14537;47.788;11.858;2022-11-15T08:21:13;3.65;;;2.15;;
26989;SDS011;14537;47.788;11.858;2022-11-15T08:23:42;9.27;;;2.78;;
26989;SDS011;14537;47.788;11.858;2022-11-15T08:26:08;5.38;;;2.33;;
26989;SDS011;14537;47.788;11.858;2022-11-15T08:28:34;4.70;;;2.33;;
26989;SDS011;14537;47.788;11.858;2022-11-15T08:31:00;5.80;;;2.28;;
26989;SDS011;14537;47.788;11.858;2022-11-15T08:33:26;9.00;;;3.13;;
26989;SDS011;14537;47.788;11.858;2022-11-15T08:35:55;5.25;;;2.60;;
26989;SDS011;14537;47.788;11.858;2022-11-15T08:38:22;4.15;;;1.85;;
26989;SDS011;14537;47.788;11.858;2022-11-15T08:40:48;2.80;;;1.38;;
26989;SDS011;14537;47.788;11.858;2022-11-15T08:43:16;3.95;;;1.63;;
26989;SDS011;14537;47.788;11.858;2022-11-15T08:45:41;5.10;;;2.53;;
26989;SDS011;14537;47.788;11.858;2022-11-15T08:48:07;2.92;;;1.65;;
26989;SDS011;14537;47.788;11.858;2022-11-15T08:50:32;3.28;;;1.65;;
26989;SDS011;14537;47.788;11.858;2022-11-15T08:53:03;1.88;;;1.40;;
26989;SDS011;14537;47.788;11.858;2022-11-15T08:55:30;1.70;;;1.38;;
26989;SDS011;14537;47.788;11.858;2022-11-15T08:57:57;1.88;;;1.25;;
26989;SDS011;14537;47.788;11.858;2022-11-15T09:00:24;2.45;;;1.63;;
26989;SDS011;14537;47.788;11.858;2022-11-15T09:02:49;4.03;;;1.50;;
26989;SDS011;14537;47.788;11.858;2022-11-15T09:05:15;1.95;;;1.27;;
26989;SDS011;14537;47.788;11.858;2022-11-15T09:07:41;4.93;;;1.80;;
26989;SDS011;14537;47.788;11.858;2022-11-15T09:10:07;2.75;;;1.58;;
26989;SDS011;14537;47.788;11.858;2022-11-15T09:12:33;3.72;;;1.55;;
26989;SDS011;14537;47.788;11.858;2022-11-15T09:14:58;2.65;;;1.55;;
26989;SDS011;14537;47.788;11.858;2022-11-15T09:17:24;3.58;;;1.70;;
26989;SDS011;14537;47.788;11.858;2022-11-15T09:19:49;5.60;;;1.98;;
26989;SDS011;14537;47.788;11.858;2022-11-15T09:22:15;3.88;;;1.90;;
26989;SDS011;14537;47.788;11.858;2022-11-15T09:24:41;3.28;;;1.70;;
26989;SDS011;14537;47.788;11.858;2022-11-15T09:27:07;3.63;;;1.92;;
26989;SDS011;14537;47.788;11.858;2022-11-15T09:29:32;5.22;;;2.60;;
26989;SDS011;14537;47.788;11.858;2022-11-15T09:31:58;3.70;;;1.75;;
26989;SDS011;14537;47.788;11.858;2022-11-15T09:34:24;3.58;;;1.90;;
26989;SDS011;14537;47.788;11.858;2022-11-15T09:36:50;4.75;;;2.10;;
26989;SDS011;14537;47.788;11.858;2022-11-15T09:39:15;2.58;;;1.60;;
26989;SDS011;14537;47.788;11.858;2022-11-15T09:47:10;4.63;;;2.00;;
26989;SDS011;14537;47.788;11.858;2022-11-15T09:49:57;2.35;;;1.52;;
26989;SDS011;14537;47.788;11.858;2022-11-15T09:52:24;4.10;;;2.28;;
26989;SDS011;14537;47.788;11.858;2022-11-15T09:54:51;4.13;;;1.92;;
26989;SDS011;14537;47.788;11.858;2022-11-15T09:57:38;5.13;;;2.45;;
26989;SDS011;14537;47.788;11.858;2022-11-15T10:05:31;2.83;;;1.80;;
26989;SDS011;14537;47.788;11.858;2022-11-15T10:08:40;3.03;;;1.60;;
26989;SDS011;14537;47.788;11.858;2022-11-15T10:11:00;1.65;;;1.10;;
26989;SDS011;14537;47.788;11.858;2022-11-15T10:13:30;2.03;;;1.42;;
26989;SDS011;14537;47.788;11.858;2022-11-15T10:16:12;3.15;;;1.35;;
26989;SDS011;14537;47.788;11.858;2022-11-15T10:24:33;2.58;;;1.13;;
26989;SDS011;14537;47.788;11.858;2022-11-15T10:27:04;1.70;;;1.10;;
26989;SDS011;14537;47.788;11.858;2022-11-15T10:29:50;1.58;;;1.20;;
26989;SDS011;14537;47.788;11.858;2022-11-15T10:32:19;2.58;;;1.23;;
26989;SDS011;14537;47.788;11.858;2022-11-15T10:34:46;7.88;;;2.88;;
26989;SDS011;14537;47.788;11.858;2022-11-15T10:37:13;5.10;;;1.85;;
26989;SDS011;14537;47.788;11.858;2022-11-15T10:39:39;1.42;;;1.00;;
26989;SDS011;14537;47.788;11.858;2022-11-15T10:44:53;2.03;;;1.40;;
26989;SDS011;14537;47.788;11.858;2022-11-15T10:50:00;6.13;;;1.80;;
26989;SDS011;14537;47.788;11.858;2022-11-15T10:52:29;2.38;;;1.50;;
26989;SDS011;14537;47.788;11.858;2022-11-15T10:57:37;4.00;;;1.80;;
26989;SDS011;14537;47.788;11.858;2022-11-15T11:00:26;7.47;;;2.08;;
26989;SDS011;14537;47.788;11.858;2022-11-15T11:03:04;2.20;;;1.38;;
26989;SDS011;14537;47.788;11.858;2022-11-15T11:05:45;2.55;;;1.48;;
26989;SDS011;14537;47.788;11.858;2022-11-15T11:10:37;19.88;;;8.13;;
26989;SDS011;14537;47.788;11.858;2022-11-15T11:13:13;2.70;;;1.63;;
26989;SDS011;14537;47.788;11.858;2022-11-15T11:15:55;2.28;;;1.27;;
26989;SDS011;14537;47.788;11.858;2022-11-15T11:18:27;2.47;;;1.30;;
26989;SDS011;14537;47.788;11.858;2022-11-15T11:21:03;2.10;;;1.33;;
26989;SDS011;14537;47.788;11.858;2022-11-15T11:40:20;3.08;;;1.33;;
26989;SDS011;14537;47.788;11.858;2022-11-15T11:43:04;1.88;;;1.40;;
26989;SDS011;14537;47.788;11.858;2022-11-15T11:51:18;2.60;;;1.58;;
26989;SDS011;14537;47.788;11.858;2022-11-15T11:53:57;3.85;;;1.85;;
26989;SDS011;14537;47.788;11.858;2022-11-15T11:56:31;4.03;;;1.80;;
26989;SDS011;14537;47.788;11.858;2022-11-15T11:59:05;3.05;;;1.70;;
26989;SDS011;14537;47.788;11.858;2022-11-15T12:01:43;2.53;;;1.83;;
26989;SDS011;14537;47.788;11.858;2022-11-15T12:04:17;2.13;;;1.48;;
26989;SDS011;14537;47.788;11.858;2022-11-15T12:09:55;2.50;;;1.60;;
26989;SDS011;14537;47.788;11.858;2022-11-15T12:12:39;2.50;;;1.70;;
26989;SDS011;14537;47.788;11.858;2022-11-15T12:15:16;1.90;;;1.40;;
26989;SDS011;14537;47.788;11.858;2022-11-15T12:17:55;3.22;;;1.70;;
26989;SDS011;14537;47.788;11.858;2022-11-15T12:20:22;1.95;;;1.42;;
26989;SDS011;14537;47.788;11.858;2022-11-15T12:22:54;2.45;;;1.70;;
26989;SDS011;14537;47.788;11.858;2022-11-15T12:25:35;3.72;;;1.67;;
26989;SDS011;14537;47.788;11.858;2022-11-15T12:28:52;2.33;;;1.52;;
26989;SDS011;14537;47.788;11.858;2022-11-15T12:30:55;2.47;;;1.58;;
26989;SDS011;14537;47.788;11.858;2022-11-15T12:33:40;5.68;;;1.65;;
26989;SDS011;14537;47.788;11.858;2022-11-15T12:38:59;4.50;;;1.60;;
26989;SDS011;14537;47.788;11.858;2022-11-15T12:41:29;2.15;;;1.55;;
26989;SDS011;14537;47.788;11.858;2022-11-15T12:43:59;1.33;;;1.08;;
26989;SDS011;14537;47.788;11.858;2022-11-15T12:49:01;2.60;;;1.10;;
26989;SDS011;14537;47.788;11.858;2022-11-15T13:02:41;2.03;;;1.23;;
26989;SDS011;14537;47.788;11.858;2022-11-15T13:20:16;3.83;;;1.48;;
26989;SDS011;14537;47.788;11.858;2022-11-15T13:30:39;2.42;;;1.33;;
26989;SDS011;14537;47.788;11.858;2022-11-15T13:33:28;2.17;;;1.20;;
26989;SDS011;14537;47.788;11.858;2022-11-15T13:36:12;2.25;;;1.20;;
26989;SDS011;14537;47.788;11.858;2022-11-15T13:38:40;2.50;;;1.55;;
26989;SDS011;14537;47.788;11.858;2022-11-15T13:41:13;1.58;;;1.23;;
26989;SDS011;14537;47.788;11.858;2022-11-15T13:43:43;1.38;;;1.10;;
26989;SDS011;14537;47.788;11.858;2022-11-15T13:48:56;3.70;;;1.30;;
26989;SDS011;14537;47.788;11.858;2022-11-15T13:51:36;2.03;;;1.30;;
26989;SDS011;14537;47.788;11.858;2022-11-15T13:56:39;2.38;;;1.60;;
26989;SDS011;14537;47.788;11.858;2022-11-15T13:59:09;3.72;;;2.08;;
26989;SDS011;14537;47.788;11.858;2022-11-15T14:01:45;3.50;;;1.85;;
26989;SDS011;14537;47.788;11.858;2022-11-15T14:04:12;6.07;;;2.33;;
26989;SDS011;14537;47.788;11.858;2022-11-15T14:06:47;6.93;;;2.92;;
26989;SDS011;14537;47.788;11.858;2022-11-15T14:11:55;4.63;;;2.30;;
26989;SDS011;14537;47.788;11.858;2022-11-15T14:14:22;5.90;;;2.53;;
26989;SDS011;14537;47.788;11.858;2022-11-15T14:16:53;10.32;;;3.00;;
26989;SDS011;14537;47.788;11.858;2022-11-15T14:24:34;8.63;;;3.00;;
26989;SDS011;14537;47.788;11.858;2022-11-15T14:29:47;7.10;;;2.88;;
26989;SDS011;14537;47.788;11.858;2022-11-15T14:32:17;6.13;;;2.60;;
26989;SDS011;14537;47.788;11.858;2022-11-15T14:34:46;6.35;;;2.20;;
26989;SDS011;14537;47.788;11.858;2022-11-15T14:37:27;5.78;;;1.95;;
26989;SDS011;14537;47.788;11.858;2022-11-15T14:39:59;6.53;;;2.08;;
26989;SDS011;14537;47.788;11.858;2022-11-15T14:42:24;4.05;;;2.15;;
26989;SDS011;14537;47.788;11.858;2022-11-15T14:44:51;4.45;;;1.70;;
26989;SDS011;14537;47.788;11.858;2022-11-15T14:47:16;2.08;;;1.40;;
26989;SDS011;14537;47.788;11.858;2022-11-15T14:49:42;4.95;;;1.92;;
26989;SDS011;14537;47.788;11.858;2022-11-15T14:54:59;12.25;;;5.43;;
26989;SDS011;14537;47.788;11.858;2022-11-15T14:57:27;8.93;;;4.15;;
26989;SDS011;14537;47.788;11.858;2022-11-15T14:59:53;8.55;;;4.13;;
26989;SDS011;14537;47.788;11.858;2022-11-15T15:02:20;4.70;;;2.78;;
26989;SDS011;14537;47.788;11.858;2022-11-15T15:04:47;4.95;;;2.90;;
26989;SDS011;14537;47.788;11.858;2022-11-15T15:07:14;6.35;;;2.58;;
26989;SDS011;14537;47.788;11.858;2022-11-15T15:09:40;8.15;;;3.67;;
26989;SDS011;14537;47.788;11.858;2022-11-15T15:12:16;10.57;;;2.78;;
26989;SDS011;14537;47.788;11.858;2022-11-15T15:14:44;4.68;;;1.88;;
26989;SDS011;14537;47.788;11.858;2022-11-15T15:17:11;4.63;;;2.40;;
26989;SDS011;14537;47.788;11.858;2022-11-15T15:19:37;4.18;;;2.65;;
26989;SDS011;14537;47.788;11.858;2022-11-15T15:22:03;7.35;;;3.13;;
26989;SDS011;14537;47.788;11.858;2022-11-15T15:24:29;6.00;;;3.20;;
26989;SDS011;14537;47.788;11.858;2022-11-15T15:26:54;8.77;;;3.33;;
26989;SDS011;14537;47.788;11.858;2022-11-15T15:29:20;11.77;;;5.18;;
26989;SDS011;14537;47.788;11.858;2022-11-15T15:31:46;17.75;;;6.80;;
26989;SDS011;14537;47.788;11.858;2022-11-15T15:34:11;15.45;;;6.18;;
26989;SDS011;14537;47.788;11.858;2022-11-15T15:36:37;16.60;;;5.65;;
26989;SDS011;14537;47.788;11.858;2022-11-15T15:39:03;8.00;;;4.15;;
26989;SDS011;14537;47.788;11.858;2022-11-15T15:41:28;9.75;;;4.25;;
26989;SDS011;14537;47.788;11.858;2022-11-15T15:43:54;9.68;;;4.25;;
26989;SDS011;14537;47.788;11.858;2022-11-15T15:46:20;5.72;;;3.80;;
26989;SDS011;14537;47.788;11.858;2022-11-15T15:48:46;5.68;;;3.03;;
26989;SDS011;14537;47.788;11.858;2022-11-15T15:51:12;14.82;;;6.43;;
26989;SDS011;14537;47.788;11.858;2022-11-15T15:53:38;7.40;;;3.88;;
26989;SDS011;14537;47.788;11.858;2022-11-15T15:56:04;6.82;;;3.55;;
26989;SDS011;14537;47.788;11.858;2022-11-15T15:58:32;5.55;;;3.13;;
26989;SDS011;14537;47.788;11.858;2022-11-15T16:00:58;7.18;;;2.92;;
26989;SDS011;14537;47.788;11.858;2022-11-15T16:03:24;5.63;;;3.00;;
26989;SDS011;14537;47.788;11.858;2022-11-15T16:05:50;8.30;;;4.40;;
26989;SDS011;14537;47.788;11.858;2022-11-15T16:08:18;8.15;;;4.30;;
26989;SDS011;14537;47.788;11.858;2022-11-15T16:10:48;6.45;;;3.10;;
26989;SDS011;14537;47.788;11.858;2022-11-15T16:13:14;9.82;;;3.67;;
26989;SDS011;14537;47.788;11.858;2022-11-15T16:15:40;9.60;;;3.85;;
26989;SDS011;14537;47.788;11.858;2022-11-15T16:18:12;10.73;;;5.00;;
26989;SDS011;14537;47.788;11.858;2022-11-15T16:20:42;8.50;;;4.88;;
26989;SDS011;14537;47.788;11.858;2022-11-15T16:23:15;20.67;;;7.95;;
26989;SDS011;14537;47.788;11.858;2022-11-15T16:25:52;24.55;;;9.65;;
26989;SDS011;14537;47.788;11.858;2022-11-15T16:28:27;16.13;;;5.43;;
26989;SDS011;14537;47.788;11.858;2022-11-15T16:31:03;5.38;;;3.05;;
26989;SDS011;14537;47.788;11.858;2022-11-15T16:33:34;5.13;;;2.85;;
26989;SDS011;14537;47.788;11.858;2022-11-15T16:36:01;6.93;;;2.60;;
26989;SDS011;14537;47.788;11.858;2022-11-15T16:38:27;4.10;;;2.22;;
26989;SDS011;14537;47.788;11.858;2022-11-15T16:40:53;4.85;;;2.53;;
26989;SDS011;14537;47.788;11.858;2022-11-15T16:43:18;3.45;;;2.22;;
26989;SDS011;14537;47.788;11.858;2022-11-15T16:45:44;6.13;;;3.03;;
26989;SDS011;14537;47.788;11.858;2022-11-15T16:48:16;21.55;;;3.33;;
26989;SDS011;14537;47.788;11.858;2022-11-15T16:50:49;4.25;;;2.70;;
26989;SDS011;14537;47.788;11.858;2022-11-15T16:53:18;10.63;;;5.53;;
26989;SDS011;14537;47.788;11.858;2022-11-15T16:55:44;11.07;;;5.95;;
26989;SDS011;14537;47.788;11.858;2022-11-15T16:58:09;10.20;;;4.75;;
26989;SDS011;14537;47.788;11.858;2022-11-15T17:00:35;32.58;;;8.00;;
26989;SDS011;14537;47.788;11.858;2022-11-15T17:03:01;116.00;;;19.42;;
26989;SDS011;14537;47.788;11.858;2022-11-15T17:05:27;49.50;;;13.32;;
26989;SDS011;14537;47.788;11.858;2022-11-15T17:07:53;33.70;;;12.10;;
26989;SDS011;14537;47.788;11.858;2022-11-15T17:10:23;17.48;;;8.45;;
26989;SDS011;14537;47.788;11.858;2022-11-15T17:12:50;35.80;;;16.50;;
26989;SDS011;14537;47.788;11.858;2022-11-15T17:15:16;51.28;;;20.58;;